createdAt,value
2022-12-01T00:01:46.472Z,10.73
2022-12-01T00:04:15.342Z,10.83
2022-12-01T00:06:44.354Z,10.20
2022-12-01T00:09:31.083Z,10.03
2022-12-01T00:12:02.364Z,10.37
2022-12-01T00:14:32.267Z,10.37
2022-12-01T00:17:00.362Z,10.13
2022-12-01T00:19:28.884Z,10.33
2022-12-01T00:22:03.266Z,10.37
2022-12-01T00:24:31.267Z,10.47
2022-12-01T00:27:00.441Z,11.13
2022-12-01T00:29:28.527Z,10.97
2022-12-01T00:31:58.791Z,10.70
2022-12-01T00:34:28.127Z,10.90
2022-12-01T00:37:00.425Z,10.43
2022-12-01T00:39:29.376Z,11.20
2022-12-01T00:41:57.453Z,11.17
2022-12-01T00:44:26.374Z,10.90
2022-12-01T00:46:54.855Z,11.10
2022-12-01T00:49:24.397Z,11.60
2022-12-01T00:51:52.431Z,10.67
2022-12-01T00:54:21.392Z,10.37
2022-12-01T00:56:49.956Z,11.10
2022-12-01T00:59:18.141Z,11.53
2022-12-01T01:01:52.011Z,10.23
2022-12-01T01:04:21.374Z,11.07
2022-12-01T01:06:51.367Z,10.50
2022-12-01T01:09:20.292Z,11.40
2022-12-01T01:11:48.452Z,11.47
2022-12-01T01:14:18.387Z,10.67
2022-12-01T01:16:47.464Z,11.50
2022-12-01T01:19:17.493Z,10.83
2022-12-01T01:21:45.945Z,11.97
2022-12-01T01:24:19.154Z,11.70
2022-12-01T01:26:50.296Z,11.43
2022-12-01T01:29:18.394Z,11.13
2022-12-01T01:31:46.312Z,11.97
2022-12-01T01:34:15.431Z,11.47
2022-12-01T01:36:48.259Z,11.67
2022-12-01T01:39:19.414Z,12.30
2022-12-01T01:41:48.366Z,12.83
2022-12-01T01:44:51.303Z,11.67
2022-12-01T01:47:27.667Z,11.30
2022-12-01T01:49:59.166Z,11.57
2022-12-01T01:52:30.399Z,11.80
2022-12-01T01:55:00.376Z,11.97
2022-12-01T01:57:33.135Z,11.73
2022-12-01T02:00:07.436Z,12.37
2022-12-01T02:02:47.482Z,12.10
2022-12-01T02:05:23.140Z,12.30
2022-12-01T02:07:58.491Z,12.50
2022-12-01T02:10:40.451Z,11.80
2022-12-01T02:13:19.295Z,11.53
2022-12-01T02:15:54.389Z,12.13
2022-12-01T02:18:35.283Z,11.57
2022-12-01T02:21:31.201Z,11.80
2022-12-01T02:24:48.313Z,19.87
2022-12-01T02:27:37.832Z,12.90
2022-12-01T02:30:12.297Z,12.93
2022-12-01T02:32:59.476Z,12.43
2022-12-01T02:35:34.811Z,13.50
2022-12-01T02:38:15.416Z,12.93
2022-12-01T02:40:49.432Z,13.70
2022-12-01T02:43:24.436Z,12.37
2022-12-01T02:45:57.358Z,13.13
2022-12-01T02:48:31.685Z,13.30
2022-12-01T02:51:04.205Z,13.53
2022-12-01T02:53:33.324Z,12.97
2022-12-01T02:56:04.522Z,13.43
2022-12-01T02:58:32.836Z,14.07
2022-12-01T03:01:12.626Z,13.83
2022-12-01T03:03:57.512Z,13.07
2022-12-01T03:06:38.186Z,13.10
2022-12-01T03:09:15.989Z,13.10
2022-12-01T03:11:51.390Z,13.43
2022-12-01T03:14:33.543Z,13.50
2022-12-01T03:17:06.460Z,13.33
2022-12-01T03:19:42.488Z,14.53
2022-12-01T03:22:15.423Z,13.73
2022-12-01T03:24:48.319Z,13.67
2022-12-01T03:27:20.444Z,13.70
2022-12-01T03:29:52.078Z,13.63
2022-12-01T03:32:25.392Z,13.47
2022-12-01T03:35:00.553Z,13.80
2022-12-01T03:37:35.461Z,14.10
2022-12-01T03:40:07.335Z,13.50
2022-12-01T03:42:39.436Z,14.23
2022-12-01T03:45:14.385Z,13.53
2022-12-01T03:47:43.431Z,13.00
2022-12-01T03:50:14.723Z,13.33
2022-12-01T03:52:50.446Z,13.13
2022-12-01T03:55:24.048Z,13.40
2022-12-01T03:58:02.675Z,14.20
2022-12-01T04:00:31.373Z,12.67
2022-12-01T04:03:02.180Z,13.90
2022-12-01T04:05:33.370Z,13.87
2022-12-01T04:08:03.246Z,13.40
2022-12-01T04:10:33.039Z,12.97
2022-12-01T04:13:05.388Z,13.30
2022-12-01T04:15:34.325Z,12.90
2022-12-01T04:18:03.063Z,12.90
2022-12-01T04:20:36.379Z,13.60
2022-12-01T04:23:04.447Z,13.57
2022-12-01T04:25:34.201Z,13.27
2022-12-01T04:28:02.452Z,13.27
2022-12-01T04:30:30.380Z,13.90
2022-12-01T04:33:02.487Z,12.73
2022-12-01T04:35:30.409Z,13.30
2022-12-01T04:38:02.525Z,13.93
2022-12-01T04:40:31.471Z,14.20
2022-12-01T04:43:00.420Z,14.73
2022-12-01T04:45:30.377Z,13.20
2022-12-01T04:47:58.495Z,13.43
2022-12-01T04:50:32.041Z,14.80
2022-12-01T04:53:01.481Z,14.13
2022-12-01T04:55:32.639Z,14.67
2022-12-01T04:58:05.028Z,14.40
2022-12-01T05:00:33.151Z,14.17
2022-12-01T05:03:01.548Z,13.80
2022-12-01T05:05:29.585Z,13.97
2022-12-01T05:08:00.469Z,14.00
2022-12-01T05:10:29.895Z,14.00
2022-12-01T05:12:58.131Z,14.53
2022-12-01T05:15:26.915Z,14.23
2022-12-01T05:17:54.912Z,13.53
2022-12-01T05:20:45.703Z,13.50
2022-12-01T05:23:16.713Z,13.90
2022-12-01T05:25:46.635Z,16.17
2022-12-01T05:28:14.623Z,14.37
2022-12-01T05:30:42.569Z,14.43
2022-12-01T05:33:10.737Z,13.40
2022-12-01T05:35:38.799Z,13.53
2022-12-01T05:38:10.161Z,13.30
2022-12-01T05:40:38.526Z,12.30
2022-12-01T05:43:08.447Z,13.17
2022-12-01T05:45:38.539Z,13.70
2022-12-01T05:48:06.914Z,13.37
2022-12-01T05:50:38.465Z,13.50
2022-12-01T05:53:08.741Z,14.23
2022-12-01T05:55:36.718Z,13.07
2022-12-01T05:58:07.437Z,12.53
2022-12-01T06:00:39.614Z,12.63
2022-12-01T06:03:14.309Z,12.70
2022-12-01T06:05:42.525Z,12.03
2022-12-01T06:11:04.502Z,13.17
2022-12-01T06:13:33.833Z,12.80
2022-12-01T06:16:03.502Z,13.30
2022-12-01T06:18:34.504Z,11.80
2022-12-01T06:21:02.876Z,12.10
2022-12-01T06:23:32.528Z,12.03
2022-12-01T06:26:01.110Z,12.00
2022-12-01T06:28:29.106Z,12.57
2022-12-01T06:31:03.148Z,11.63
2022-12-01T06:33:32.581Z,12.23
2022-12-01T06:36:00.885Z,12.93
2022-12-01T06:38:35.501Z,11.80
2022-12-01T06:41:07.197Z,12.83
2022-12-01T06:43:37.595Z,12.80
2022-12-01T06:46:08.602Z,12.93
2022-12-01T06:48:36.597Z,12.80
2022-12-01T06:51:05.677Z,13.47
2022-12-01T06:53:37.039Z,14.00
2022-12-01T06:56:06.484Z,15.80
2022-12-01T06:58:35.621Z,15.27
2022-12-01T07:01:10.674Z,16.57
2022-12-01T07:03:39.216Z,16.63
2022-12-01T07:06:07.443Z,16.33
2022-12-01T07:08:38.170Z,15.83
2022-12-01T07:11:08.328Z,15.10
2022-12-01T07:13:38.541Z,15.57
2022-12-01T07:16:07.664Z,15.60
2022-12-01T07:18:40.666Z,16.27
2022-12-01T07:21:11.421Z,15.23
2022-12-01T07:23:40.397Z,15.77
2022-12-01T07:26:11.804Z,14.83
2022-12-01T07:28:40.508Z,15.50
2022-12-01T07:31:10.094Z,13.87
2022-12-01T07:33:40.044Z,14.93
2022-12-01T07:36:09.418Z,15.37
2022-12-01T07:38:37.900Z,13.37
2022-12-01T07:41:07.338Z,14.90
2022-12-01T07:43:36.228Z,14.83
2022-12-01T07:46:08.806Z,14.83
2022-12-01T07:48:38.240Z,14.23
2022-12-01T07:51:08.338Z,13.53
2022-12-01T07:53:38.529Z,15.40
2022-12-01T07:56:10.027Z,14.97
2022-12-01T07:58:38.381Z,15.87
2022-12-01T08:01:12.587Z,14.87
2022-12-01T08:03:41.496Z,15.10
2022-12-01T08:06:11.431Z,16.73
2022-12-01T08:08:41.815Z,15.30
2022-12-01T08:11:12.629Z,16.53
2022-12-01T08:13:41.538Z,15.70
2022-12-01T08:16:13.658Z,15.30
2022-12-01T08:18:43.439Z,15.00
2022-12-01T08:21:18.362Z,15.03
2022-12-01T08:23:49.789Z,15.47
2022-12-01T08:26:19.708Z,15.13
2022-12-01T08:28:48.557Z,15.27
2022-12-01T08:31:19.045Z,15.17
2022-12-01T08:33:47.755Z,15.60
2022-12-01T08:36:19.063Z,15.03
2022-12-01T08:38:52.809Z,16.33
2022-12-01T08:41:24.771Z,16.67
2022-12-01T08:43:58.370Z,17.60
2022-12-01T08:46:31.436Z,17.97
2022-12-01T08:49:00.527Z,18.57
2022-12-01T08:51:30.517Z,17.50
2022-12-01T08:54:00.549Z,17.60
2022-12-01T08:56:31.236Z,17.40
2022-12-01T08:59:00.409Z,17.77
2022-12-01T09:01:29.953Z,16.83
2022-12-01T09:04:08.820Z,17.47
2022-12-01T09:06:41.830Z,16.53
2022-12-01T09:09:10.836Z,16.10
2022-12-01T09:11:44.446Z,15.67
2022-12-01T09:14:13.521Z,15.60
2022-12-01T09:16:44.604Z,15.93
2022-12-01T09:19:13.409Z,19.03
2022-12-01T09:21:45.356Z,18.37
2022-12-01T09:24:14.567Z,19.60
2022-12-01T09:26:43.525Z,19.90
2022-12-01T09:29:14.627Z,20.20
2022-12-01T09:31:43.330Z,21.07
2022-12-01T09:34:19.005Z,20.10
2022-12-01T09:36:49.109Z,19.97
2022-12-01T09:39:20.105Z,19.77
2022-12-01T09:41:51.392Z,20.07
2022-12-01T09:44:31.934Z,19.73
2022-12-01T09:47:10.644Z,19.47
2022-12-01T09:49:46.630Z,18.50
2022-12-01T09:52:19.853Z,18.10
2022-12-01T09:54:48.426Z,17.83
2022-12-01T09:57:28.188Z,17.73
2022-12-01T10:00:00.469Z,18.57
2022-12-01T10:02:35.694Z,38.60
2022-12-01T10:05:07.234Z,24.73
2022-12-01T10:07:45.745Z,17.67
2022-12-01T10:10:17.481Z,17.20
2022-12-01T10:12:48.533Z,16.23
2022-12-01T10:15:27.473Z,15.83
2022-12-01T10:18:05.898Z,15.63
2022-12-01T10:20:42.122Z,16.37
2022-12-01T10:23:30.496Z,15.47
2022-12-01T10:26:00.040Z,16.47
2022-12-01T10:28:52.483Z,16.10
2022-12-01T10:31:25.643Z,15.57
2022-12-01T10:34:02.578Z,15.57
2022-12-01T10:36:33.591Z,16.57
2022-12-01T10:39:05.532Z,16.43
2022-12-01T10:41:40.581Z,15.83
2022-12-01T10:44:10.599Z,16.50
2022-12-01T10:46:44.424Z,15.73
2022-12-01T10:49:16.613Z,16.30
2022-12-01T10:51:50.507Z,16.47
2022-12-01T10:54:21.583Z,23.07
2022-12-01T10:56:52.636Z,20.70
2022-12-01T10:59:32.470Z,17.93
2022-12-01T11:02:02.630Z,17.23
2022-12-01T11:04:45.420Z,18.13
2022-12-01T11:07:20.638Z,17.20
2022-12-01T11:10:16.626Z,17.23
2022-12-01T11:12:47.768Z,17.13
2022-12-01T11:15:23.567Z,16.67
2022-12-01T11:17:59.698Z,17.97
2022-12-01T11:20:34.172Z,17.57
2022-12-01T11:23:29.865Z,17.83
2022-12-01T11:26:05.306Z,17.47
2022-12-01T11:28:36.599Z,18.73
2022-12-01T11:31:07.146Z,18.63
2022-12-01T11:33:44.598Z,18.90
2022-12-01T11:36:21.931Z,19.40
2022-12-01T11:38:52.865Z,20.73
2022-12-01T11:41:31.158Z,18.83
2022-12-01T11:44:06.324Z,19.87
2022-12-01T11:46:46.502Z,21.53
2022-12-01T11:49:21.626Z,20.63
2022-12-01T11:51:49.980Z,19.50
2022-12-01T11:54:24.346Z,19.63
2022-12-01T11:57:31.876Z,20.97
2022-12-01T11:59:48.898Z,20.93
2022-12-01T12:02:30.719Z,20.60
2022-12-01T12:05:36.986Z,20.27
2022-12-01T12:08:13.728Z,20.80
2022-12-01T12:10:49.689Z,20.60
2022-12-01T12:13:42.763Z,20.43
2022-12-01T12:16:19.659Z,21.07
2022-12-01T12:19:12.495Z,21.60
2022-12-01T12:21:49.764Z,21.20
2022-12-01T12:24:34.539Z,22.43
2022-12-01T12:27:15.374Z,22.20
2022-12-01T12:29:59.576Z,20.43
2022-12-01T12:32:45.500Z,20.67
2022-12-01T12:35:29.835Z,21.00
2022-12-01T12:38:07.186Z,19.87
2022-12-01T12:40:43.108Z,20.47
2022-12-01T12:43:26.879Z,20.53
2022-12-01T12:46:07.387Z,19.50
2022-12-01T12:49:18.786Z,19.87
2022-12-01T12:51:50.607Z,20.00
2022-12-01T12:54:24.817Z,19.93
2022-12-01T12:56:59.648Z,19.97
2022-12-01T12:59:32.614Z,19.67
2022-12-01T13:02:10.015Z,30.37
2022-12-01T13:04:44.362Z,20.20
2022-12-01T13:07:30.131Z,17.23
2022-12-01T13:10:03.995Z,16.27
2022-12-01T13:12:35.703Z,17.77
2022-12-01T13:15:15.511Z,15.73
2022-12-01T13:17:52.505Z,16.77
2022-12-01T13:20:24.184Z,17.57
2022-12-01T13:22:54.424Z,16.23
2022-12-01T13:25:27.187Z,16.60
2022-12-01T13:27:57.209Z,17.07
2022-12-01T13:30:26.936Z,16.10
2022-12-01T13:33:05.038Z,15.80
2022-12-01T13:35:36.366Z,14.67
2022-12-01T13:38:33.999Z,14.73
2022-12-01T13:41:23.921Z,13.67
2022-12-01T13:44:08.694Z,11.87
2022-12-01T13:46:52.893Z,11.47
2022-12-01T13:49:40.543Z,11.20
2022-12-01T13:52:29.444Z,10.30
2022-12-01T13:55:16.734Z,16.07
2022-12-01T13:57:48.600Z,10.13
2022-12-01T14:00:26.209Z,10.00
2022-12-01T14:03:32.708Z,9.63
2022-12-01T14:06:11.525Z,9.90
2022-12-01T14:08:48.885Z,9.90
2022-12-01T14:11:24.419Z,11.85
2022-12-01T14:13:56.331Z,10.67
2022-12-01T14:16:26.333Z,9.63
2022-12-01T14:18:57.778Z,10.43
2022-12-01T14:21:44.815Z,9.30
2022-12-01T14:24:28.540Z,9.93
2022-12-01T14:26:57.286Z,9.73
2022-12-01T14:29:29.661Z,10.20
2022-12-01T14:32:26.470Z,9.83
2022-12-01T14:35:02.598Z,11.07
2022-12-01T14:37:40.679Z,10.30
2022-12-01T14:40:14.645Z,10.90
2022-12-01T14:43:04.531Z,11.53
2022-12-01T14:45:36.696Z,11.07
2022-12-01T14:48:06.636Z,11.03
2022-12-01T14:50:45.082Z,10.23
2022-12-01T14:53:24.619Z,8.43
2022-12-01T14:55:57.363Z,9.10
2022-12-01T14:58:28.934Z,10.40
2022-12-01T15:01:05.858Z,10.00
2022-12-01T15:03:40.579Z,12.00
2022-12-01T15:06:09.585Z,11.80
2022-12-01T15:08:45.733Z,12.10
2022-12-01T15:11:22.283Z,11.17
2022-12-01T15:13:52.216Z,11.13
2022-12-01T15:16:23.349Z,11.60
2022-12-01T15:18:52.547Z,11.57
2022-12-01T15:21:27.655Z,10.53
2022-12-01T15:24:02.661Z,11.13
2022-12-01T15:26:32.557Z,10.60
2022-12-01T15:29:16.417Z,10.40
2022-12-01T15:31:46.756Z,10.87
2022-12-01T15:34:18.650Z,10.67
2022-12-01T15:36:48.366Z,10.77
2022-12-01T15:39:24.398Z,11.57
2022-12-01T15:41:54.580Z,10.70
2022-12-01T15:44:28.700Z,11.60
2022-12-01T15:46:58.284Z,11.00
2022-12-01T15:49:29.723Z,12.10
2022-12-01T15:52:07.398Z,10.40
2022-12-01T15:54:38.555Z,11.77
2022-12-01T15:57:09.582Z,9.47
2022-12-01T15:59:40.189Z,9.60
2022-12-01T16:02:25.718Z,9.53
2022-12-01T16:05:03.387Z,9.27
2022-12-01T16:08:11.494Z,10.30
2022-12-01T16:10:30.396Z,11.13
2022-12-01T16:13:35.853Z,12.50
2022-12-01T16:16:29.800Z,12.70
2022-12-01T16:19:00.807Z,11.67
2022-12-01T16:21:29.962Z,11.80
2022-12-01T16:24:02.468Z,11.63
2022-12-01T16:26:33.916Z,12.27
2022-12-01T16:29:01.981Z,11.17
2022-12-01T16:31:30.089Z,12.73
2022-12-01T16:34:13.784Z,12.43
2022-12-01T16:36:47.209Z,12.43
2022-12-01T16:39:15.791Z,12.67
2022-12-01T16:41:46.907Z,12.33
2022-12-01T16:44:31.118Z,11.90
2022-12-01T16:47:01.488Z,13.47
2022-12-01T16:49:29.629Z,13.50
2022-12-01T16:52:03.600Z,15.00
2022-12-01T16:54:39.406Z,16.77
2022-12-01T16:57:08.964Z,17.00
2022-12-01T16:59:37.598Z,16.10
2022-12-01T17:02:05.727Z,14.70
2022-12-01T17:04:36.512Z,15.17
2022-12-01T17:07:05.205Z,14.93
2022-12-01T17:09:36.577Z,16.20
2022-12-01T17:12:05.908Z,17.17
2022-12-01T17:14:36.721Z,17.30
2022-12-01T17:17:08.548Z,15.40
2022-12-01T17:19:36.788Z,16.07
2022-12-01T17:22:04.906Z,15.67
2022-12-01T17:24:33.011Z,16.33
2022-12-01T17:27:01.036Z,16.13
2022-12-01T17:29:29.090Z,16.83
2022-12-01T17:31:58.476Z,16.67
2022-12-01T17:34:26.432Z,16.47
2022-12-01T17:36:57.245Z,16.00
2022-12-01T17:39:25.221Z,19.27
2022-12-01T17:41:55.335Z,17.33
2022-12-01T17:44:23.467Z,17.10
2022-12-01T17:46:51.588Z,17.30
2022-12-01T17:49:21.247Z,18.93
2022-12-01T17:51:49.466Z,24.43
2022-12-01T17:54:19.440Z,17.27
2022-12-01T17:56:48.100Z,18.23
2022-12-01T17:59:16.114Z,17.93
2022-12-01T18:01:44.526Z,17.90
2022-12-01T18:04:12.689Z,18.60
2022-12-01T18:06:42.029Z,18.00
2022-12-01T18:09:13.448Z,17.37
2022-12-01T18:11:41.409Z,17.70
2022-12-01T18:14:09.440Z,18.77
2022-12-01T18:16:37.615Z,19.17
2022-12-01T18:19:05.702Z,18.63
2022-12-01T18:21:33.695Z,18.60
2022-12-01T18:24:05.174Z,18.37
2022-12-01T18:26:37.783Z,19.47
2022-12-01T18:29:08.723Z,20.10
2022-12-01T18:31:36.800Z,18.93
2022-12-01T18:34:06.919Z,18.43
2022-12-01T18:36:37.573Z,17.37
2022-12-01T18:39:09.412Z,17.83
2022-12-01T18:41:39.630Z,20.07
2022-12-01T18:44:07.758Z,20.13
2022-12-01T18:46:36.473Z,17.07
2022-12-01T18:49:05.258Z,16.07
2022-12-01T18:51:35.092Z,17.50
2022-12-01T18:54:07.495Z,17.50
2022-12-01T18:56:36.918Z,18.03
2022-12-01T18:59:06.892Z,17.17
2022-12-01T19:01:37.646Z,19.47
2022-12-01T19:04:07.523Z,18.40
2022-12-01T19:06:38.098Z,18.53
2022-12-01T19:09:09.082Z,18.93
2022-12-01T19:11:42.527Z,18.47
2022-12-01T19:14:16.784Z,18.67
2022-12-01T19:16:46.389Z,20.87
2022-12-01T19:19:17.046Z,19.53
2022-12-01T19:21:45.413Z,21.43
2022-12-01T19:24:13.405Z,19.33
2022-12-01T19:26:44.632Z,20.17
2022-12-01T19:29:13.209Z,19.80
2022-12-01T19:31:41.517Z,20.83
2022-12-01T19:34:10.206Z,24.30
2022-12-01T19:36:40.040Z,21.97
2022-12-01T19:39:08.136Z,19.50
2022-12-01T19:41:38.528Z,18.83
2022-12-01T19:44:08.024Z,18.27
2022-12-01T19:46:36.096Z,19.43
2022-12-01T19:49:06.766Z,19.43
2022-12-01T19:51:42.182Z,18.20
2022-12-01T19:54:14.469Z,19.50
2022-12-01T19:56:42.905Z,18.67
2022-12-01T19:59:13.604Z,20.10
2022-12-01T20:01:42.074Z,19.40
2022-12-01T20:04:10.140Z,18.47
2022-12-01T20:06:39.032Z,19.37
2022-12-01T20:09:08.114Z,19.93
2022-12-01T20:11:37.375Z,21.10
2022-12-01T20:14:07.646Z,21.47
2022-12-01T20:16:37.270Z,24.23
2022-12-01T20:19:07.110Z,21.00
2022-12-01T20:21:39.258Z,22.87
2022-12-01T20:24:14.227Z,23.60
2022-12-01T20:26:44.644Z,21.00
2022-12-01T20:29:14.960Z,22.67
2022-12-01T20:31:45.175Z,20.30
2022-12-01T20:34:16.860Z,19.40
2022-12-01T20:36:45.694Z,19.97
2022-12-01T20:39:14.515Z,18.63
2022-12-01T20:41:43.990Z,19.60
2022-12-01T20:44:12.908Z,25.03
2022-12-01T20:46:41.871Z,21.57
2022-12-01T20:49:11.244Z,21.77
2022-12-01T20:51:39.485Z,22.53
2022-12-01T20:56:57.977Z,22.00
2022-12-01T20:59:26.110Z,23.27
2022-12-01T21:01:54.259Z,22.00
2022-12-01T21:04:23.721Z,23.93
2022-12-01T21:06:53.477Z,22.63
2022-12-01T21:09:26.076Z,22.50
2022-12-01T21:12:11.350Z,21.77
2022-12-01T21:14:43.439Z,24.90
2022-12-01T21:17:22.235Z,21.77
2022-12-01T21:19:57.344Z,21.77
2022-12-01T21:22:26.454Z,22.17
2022-12-01T21:25:03.552Z,23.20
2022-12-01T21:27:32.421Z,22.63
2022-12-01T21:30:00.429Z,22.23
2022-12-01T21:32:37.790Z,22.77
2022-12-01T21:35:17.713Z,23.30
2022-12-01T21:37:46.611Z,22.37
2022-12-01T21:40:19.920Z,24.40
2022-12-01T21:42:52.511Z,20.63
2022-12-01T21:45:26.301Z,21.47
2022-12-01T21:48:00.587Z,20.63
2022-12-01T21:50:32.911Z,20.97
2022-12-01T21:53:01.172Z,28.90
2022-12-01T21:55:38.643Z,26.93
2022-12-01T21:58:25.091Z,22.27
2022-12-01T22:00:55.728Z,20.10
2022-12-01T22:03:29.696Z,21.57
2022-12-01T22:06:28.240Z,21.00
2022-12-01T22:08:52.737Z,21.57
2022-12-01T22:11:23.659Z,20.93
2022-12-01T22:14:00.789Z,20.00
2022-12-01T22:16:35.396Z,19.57
2022-12-01T22:19:22.805Z,19.90
2022-12-01T22:21:56.044Z,19.57
2022-12-01T22:24:26.611Z,20.37
2022-12-01T22:27:14.021Z,19.20
2022-12-01T22:29:44.247Z,17.83
2022-12-01T22:32:34.370Z,18.13
2022-12-01T22:35:26.700Z,17.90
2022-12-01T22:38:01.685Z,18.13
2022-12-01T22:40:52.785Z,17.80
2022-12-01T22:43:25.772Z,18.17
2022-12-01T22:46:03.693Z,20.97
2022-12-01T22:48:36.165Z,28.90
2022-12-01T22:51:25.097Z,19.30
2022-12-01T22:53:58.827Z,17.70
2022-12-01T22:56:39.209Z,18.63
2022-12-01T22:59:15.376Z,16.67
2022-12-01T23:01:50.164Z,18.10
2022-12-01T23:04:26.582Z,18.37
2022-12-01T23:07:11.513Z,17.37
2022-12-01T23:09:45.277Z,17.73
2022-12-01T23:12:26.886Z,18.77
2022-12-01T23:14:59.674Z,19.03
2022-12-01T23:17:29.888Z,18.37
2022-12-01T23:20:18.716Z,17.80
2022-12-01T23:22:46.875Z,30.90
2022-12-01T23:25:19.720Z,19.50
2022-12-01T23:27:50.853Z,17.47
2022-12-01T23:30:20.556Z,15.87
2022-12-01T23:32:58.581Z,15.30
2022-12-01T23:35:27.911Z,15.07
2022-12-01T23:37:56.821Z,16.77
2022-12-01T23:40:32.858Z,16.03
2022-12-01T23:43:11.906Z,16.33
2022-12-01T23:45:40.789Z,16.60
2022-12-01T23:48:17.427Z,16.47
2022-12-01T23:50:49.941Z,15.80
2022-12-01T23:53:25.944Z,16.67
2022-12-01T23:55:59.772Z,16.67
2022-12-01T23:58:27.914Z,16.47
